Time;durP1;ratioP1;P1;durP2;ratioP2;P2;SDS_P1;SDS_P2;PMS_P1;PMS_P2;Temp;Humidity;BMP_temperature;BMP_pressure;BME280_temperature;BME280_humidity;BME280_pressure;Samples;Min_cycle;Max_cycle;Signal;HPM_P1;HPM_P2
2023/08/07 00:01:50;;;;;;;6.43;4.57;;;15.60;99.90;;;;;;5006940;28;20243;-74
2023/08/07 00:04:37;;;;;;;6.03;3.70;;;15.60;99.90;;;;;;5013319;28;20216;-74
2023/08/07 00:07:23;;;;;;;7.53;4.00;;;15.70;99.90;;;;;;5008000;28;20231;-73
2023/08/07 00:10:08;;;;;;;6.03;4.03;;;15.50;99.90;;;;;;5008810;28;20623;-75
2023/08/07 00:12:53;;;;;;;6.17;4.03;;;15.60;99.90;;;;;;5001933;28;20363;-73
2023/08/07 00:15:40;;;;;;;5.33;3.70;;;15.50;99.90;;;;;;5004439;28;20184;-74
2023/08/07 00:18:24;;;;;;;7.63;3.90;;;15.60;99.90;;;;;;5008025;28;20216;-75
2023/08/07 00:21:09;;;;;;;5.97;4.10;;;15.50;99.90;;;;;;5000611;28;20276;-74
2023/08/07 00:23:56;;;;;;;8.20;3.50;;;15.50;99.90;;;;;;5001960;28;20267;-73
2023/08/07 00:26:41;;;;;;;6.50;3.70;;;15.50;99.90;;;;;;5005415;28;20208;-73
2023/08/07 00:29:28;;;;;;;8.77;4.07;;;15.40;99.90;;;;;;5000017;28;20213;-74
2023/08/07 00:32:12;;;;;;;5.63;4.10;;;15.40;99.90;;;;;;5005181;28;20660;-74
2023/08/07 00:34:57;;;;;;;6.60;3.63;;;15.40;99.90;;;;;;5006288;28;20583;-74
2023/08/07 00:37:41;;;;;;;8.03;4.07;;;15.40;99.90;;;;;;5006035;28;20255;-73
2023/08/07 00:40:26;;;;;;;7.03;3.70;;;15.40;99.90;;;;;;5011472;28;20196;-76
2023/08/07 00:43:10;;;;;;;8.53;4.00;;;15.40;99.90;;;;;;5010445;28;20552;-73
2023/08/07 00:45:55;;;;;;;10.90;4.43;;;15.40;99.90;;;;;;5018408;28;20265;-74
2023/08/07 00:48:40;;;;;;;8.53;4.20;;;15.30;99.90;;;;;;5008140;28;20267;-75
2023/08/07 00:51:25;;;;;;;6.87;4.03;;;15.30;99.90;;;;;;5018182;28;20185;-75
2023/08/07 00:54:15;;;;;;;6.17;3.73;;;15.30;99.90;;;;;;5002999;28;20215;-72
2023/08/07 00:57:10;;;;;;;8.77;4.17;;;15.30;99.90;;;;;;5020591;28;20196;-73
2023/08/07 00:59:55;;;;;;;8.57;4.13;;;15.20;99.90;;;;;;5014182;28;20211;-74
2023/08/07 01:02:39;;;;;;;9.73;4.57;;;15.10;99.90;;;;;;5020793;28;20227;-74
2023/08/07 01:05:28;;;;;;;8.63;3.87;;;15.30;99.90;;;;;;5009807;28;20771;-73
2023/08/07 01:08:12;;;;;;;6.83;3.87;;;15.30;99.90;;;;;;5004184;28;20181;-74
2023/08/07 01:11:07;;;;;;;6.57;4.20;;;15.30;99.90;;;;;;5000851;28;20196;-74
2023/08/07 01:14:08;;;;;;;5.87;3.67;;;15.30;99.90;;;;;;5008430;28;20694;-74
2023/08/07 01:17:02;;;;;;;7.00;3.80;;;15.30;99.90;;;;;;5010580;28;20188;-73
2023/08/07 01:19:47;;;;;;;8.17;5.33;;;15.30;99.90;;;;;;5003522;28;20212;-75
2023/08/07 01:22:32;;;;;;;7.07;4.07;;;15.30;99.90;;;;;;5007480;28;20324;-75
2023/08/07 01:25:16;;;;;;;7.17;4.33;;;15.30;99.90;;;;;;5003449;28;20177;-73
2023/08/07 01:28:29;;;;;;;11.17;4.53;;;15.30;99.90;;;;;;5000556;28;20559;-75
2023/08/07 01:31:15;;;;;;;7.87;4.50;;;15.30;99.90;;;;;;5003943;28;20200;-74
2023/08/07 01:34:08;;;;;;;10.13;4.57;;;15.30;99.90;;;;;;5015373;28;20228;-72
2023/08/07 01:36:54;;;;;;;8.03;4.40;;;15.30;99.90;;;;;;5004506;28;20195;-74
2023/08/07 01:39:46;;;;;;;7.40;4.43;;;15.30;99.90;;;;;;5001676;28;20219;-74
2023/08/07 01:42:32;;;;;;;7.83;4.20;;;15.30;99.90;;;;;;5019722;28;20184;-74
2023/08/07 01:45:27;;;;;;;6.33;4.50;;;15.30;99.90;;;;;;5009205;28;20216;-74
2023/08/07 01:48:11;;;;;;;5.30;3.93;;;15.30;99.90;;;;;;5001102;28;20224;-73
2023/08/07 01:50:58;;;;;;;7.83;3.90;;;15.20;99.90;;;;;;4997699;28;20215;-74
2023/08/07 01:53:42;;;;;;;6.40;4.30;;;15.20;99.90;;;;;;5020404;28;20204;-74
2023/08/07 01:56:30;;;;;;;5.27;4.50;;;15.20;99.90;;;;;;4999333;28;20196;-73
2023/08/07 01:59:14;;;;;;;5.57;4.17;;;15.20;99.90;;;;;;4996797;28;20203;-72
2023/08/07 02:01:59;;;;;;;6.43;4.63;;;15.10;99.90;;;;;;5002006;28;20207;-73
2023/08/07 02:04:43;;;;;;;7.53;4.63;;;15.10;99.90;;;;;;5007546;28;20245;-75
2023/08/07 02:07:28;;;;;;;9.37;4.57;;;15.20;99.90;;;;;;5003753;28;20200;-75
2023/08/07 02:10:12;;;;;;;11.03;5.17;;;15.10;99.90;;;;;;5004195;28;20212;-74
2023/08/07 02:12:59;;;;;;;9.30;5.33;;;15.10;99.90;;;;;;5008867;28;20219;-75
2023/08/07 02:15:43;;;;;;;5.90;5.27;;;15.10;99.90;;;;;;4996792;28;20607;-74
2023/08/07 02:18:28;;;;;;;8.80;5.83;;;15.10;99.90;;;;;;5003385;28;20212;-73
2023/08/07 02:21:12;;;;;;;6.63;4.60;;;15.10;99.90;;;;;;4997596;28;20229;-75
2023/08/07 02:23:56;;;;;;;9.23;5.00;;;15.10;99.90;;;;;;5003931;28;20204;-73
2023/08/07 02:26:40;;;;;;;6.63;5.30;;;15.10;99.90;;;;;;5009532;28;20744;-72
2023/08/07 02:29:27;;;;;;;8.30;5.67;;;15.10;99.90;;;;;;5001326;28;20216;-75
2023/08/07 02:32:12;;;;;;;5.67;4.73;;;15.00;99.90;;;;;;5005783;28;20267;-73
2023/08/07 02:34:56;;;;;;;8.37;5.10;;;15.00;99.90;;;;;;5001571;28;20586;-74
2023/08/07 02:37:41;;;;;;;6.73;5.13;;;15.00;99.90;;;;;;5005008;28;20188;-73
2023/08/07 02:40:26;;;;;;;5.93;5.13;;;15.00;99.90;;;;;;5002663;28;20231;-73
2023/08/07 02:43:10;;;;;;;7.07;5.10;;;15.00;99.90;;;;;;5004776;28;20207;-73
2023/08/07 02:45:55;;;;;;;6.20;5.03;;;15.00;99.90;;;;;;5006855;28;20204;-75
2023/08/07 02:48:40;;;;;;;7.17;5.20;;;15.00;99.90;;;;;;5002722;28;20339;-75
2023/08/07 02:51:24;;;;;;;7.17;4.90;;;14.90;99.90;;;;;;4998978;28;20316;-73
2023/08/07 02:54:09;;;;;;;7.10;4.80;;;14.90;99.90;;;;;;4999507;28;20252;-74
2023/08/07 02:56:53;;;;;;;12.43;5.27;;;14.90;99.90;;;;;;5000580;28;20184;-73
2023/08/07 02:59:38;;;;;;;7.70;4.33;;;14.90;99.90;;;;;;5010202;28;20812;-73
2023/08/07 03:02:23;;;;;;;5.77;4.70;;;13.00;99.90;;;;;;5018542;28;20611;-74
2023/08/07 03:05:08;;;;;;;9.03;4.47;;;14.90;99.90;;;;;;5002239;28;20268;-73
2023/08/07 03:07:55;;;;;;;8.57;4.27;;;14.80;99.90;;;;;;5001152;28;20191;-74
2023/08/07 03:10:41;;;;;;;5.10;4.40;;;14.90;99.90;;;;;;5020301;28;20193;-76
2023/08/07 03:13:26;;;;;;;8.60;4.80;;;14.80;99.90;;;;;;5003837;28;20211;-75
2023/08/07 03:16:11;;;;;;;7.90;4.17;;;14.80;99.90;;;;;;5016666;28;20707;-74
2023/08/07 03:18:56;;;;;;;6.77;4.90;;;14.80;99.90;;;;;;5016451;28;20215;-75
2023/08/07 03:21:40;;;;;;;7.80;4.83;;;14.80;99.90;;;;;;5006914;28;20192;-73
2023/08/07 03:24:24;;;;;;;6.37;4.97;;;14.90;99.90;;;;;;5012907;28;20197;-75
2023/08/07 03:27:09;;;;;;;10.73;5.27;;;14.90;99.90;;;;;;5006483;28;20189;-76
2023/08/07 03:29:53;;;;;;;9.27;4.77;;;14.90;99.90;;;;;;5002995;28;20287;-74
2023/08/07 03:32:38;;;;;;;7.50;5.30;;;14.90;99.90;;;;;;5004844;28;20180;-77
2023/08/07 03:35:22;;;;;;;6.80;4.70;;;14.90;99.90;;;;;;5000014;28;20184;-74
2023/08/07 03:38:06;;;;;;;9.67;4.93;;;14.60;99.90;;;;;;5002964;28;20672;-73
2023/08/07 03:40:59;;;;;;;5.87;4.90;;;14.90;99.90;;;;;;4999879;28;20199;-74
2023/08/07 03:43:43;;;;;;;5.27;4.63;;;14.90;99.90;;;;;;5009270;28;20216;-75
2023/08/07 03:46:31;;;;;;;6.63;4.57;;;15.00;99.90;;;;;;5004977;28;20280;-72
2023/08/07 03:49:18;;;;;;;4.80;4.27;;;14.90;99.90;;;;;;5005415;28;20255;-74
2023/08/07 03:52:02;;;;;;;7.17;4.97;;;14.90;99.90;;;;;;5003519;28;20328;-73
2023/08/07 03:54:47;;;;;;;6.57;4.80;;;14.90;99.90;;;;;;4998050;28;20247;-73
2023/08/07 03:57:34;;;;;;;9.37;4.97;;;14.90;99.90;;;;;;5004828;28;20243;-72
2023/08/07 04:00:20;;;;;;;5.40;4.90;;;14.80;99.90;;;;;;5005204;28;20216;-78
2023/08/07 04:03:07;;;;;;;5.20;4.63;;;14.90;99.90;;;;;;5003657;28;20208;-73
2023/08/07 04:05:55;;;;;;;7.63;4.67;;;14.80;99.90;;;;;;5013809;28;20189;-74
2023/08/07 04:08:40;;;;;;;8.40;4.07;;;14.80;99.90;;;;;;5010332;28;20347;-74
2023/08/07 04:11:24;;;;;;;7.70;4.40;;;14.80;99.90;;;;;;5010999;28;20196;-73
2023/08/07 04:14:09;;;;;;;6.63;4.60;;;14.80;99.90;;;;;;5018495;28;20203;-76
2023/08/07 04:17:01;;;;;;;5.50;4.63;;;14.90;99.90;;;;;;5008916;28;20255;-75
2023/08/07 04:19:45;;;;;;;9.87;4.80;;;14.80;99.90;;;;;;5009677;28;20212;-73
2023/08/07 04:22:30;;;;;;;4.37;3.97;;;14.70;99.90;;;;;;5014646;28;20185;-75
2023/08/07 04:25:14;;;;;;;6.07;5.03;;;14.80;99.90;;;;;;5003392;28;20220;-73
2023/08/07 04:27:58;;;;;;;4.70;4.20;;;14.80;99.90;;;;;;4999852;28;20235;-74
2023/08/07 04:30:44;;;;;;;6.93;4.70;;;14.80;99.90;;;;;;5011018;28;20247;-76
2023/08/07 04:33:29;;;;;;;7.43;4.97;;;14.80;99.90;;;;;;5000815;28;20214;-73
2023/08/07 04:36:13;;;;;;;7.50;5.23;;;14.80;99.90;;;;;;5005994;28;20180;-73
2023/08/07 04:38:58;;;;;;;7.47;4.93;;;15.10;99.90;;;;;;5001299;28;20299;-75
2023/08/07 04:41:42;;;;;;;6.67;5.17;;;14.80;99.90;;;;;;5002551;28;20772;-73
2023/08/07 04:44:26;;;;;;;7.30;5.13;;;14.80;99.90;;;;;;5003001;28;20311;-74
2023/08/07 04:47:11;;;;;;;7.80;4.60;;;14.80;99.90;;;;;;5015058;28;20216;-74
2023/08/07 04:49:55;;;;;;;6.37;5.23;;;14.80;99.90;;;;;;5006629;28;20212;-71
2023/08/07 04:52:40;;;;;;;6.37;4.77;;;14.80;99.90;;;;;;5006325;28;20726;-74
2023/08/07 04:55:28;;;;;;;11.53;4.93;;;14.80;99.90;;;;;;5000287;28;20261;-76
2023/08/07 04:58:15;;;;;;;8.33;5.07;;;14.90;99.90;;;;;;5011935;28;20196;-75
2023/08/07 05:01:00;;;;;;;9.63;5.33;;;14.90;99.90;;;;;;5003321;28;20200;-74
2023/08/07 05:03:44;;;;;;;7.00;4.67;;;14.80;99.90;;;;;;5006866;28;20216;-74
2023/08/07 05:06:28;;;;;;;7.07;4.87;;;14.80;99.90;;;;;;5003232;28;20209;-75
2023/08/07 05:09:13;;;;;;;10.23;5.10;;;14.80;99.90;;;;;;5015667;28;20300;-75
2023/08/07 05:11:57;;;;;;;5.93;4.63;;;14.90;99.90;;;;;;5003832;28;20192;-74
2023/08/07 05:14:42;;;;;;;5.13;4.37;;;14.90;99.90;;;;;;5010452;28;20255;-73
2023/08/07 05:17:27;;;;;;;6.07;4.80;;;14.90;99.90;;;;;;5008181;28;20307;-75
2023/08/07 05:20:12;;;;;;;6.73;4.07;;;14.90;99.90;;;;;;4998025;28;20259;-74
2023/08/07 05:22:56;;;;;;;10.73;4.27;;;15.00;99.90;;;;;;5018187;28;20264;-74
2023/08/07 05:25:39;;;;;;;8.13;4.10;;;15.00;99.90;;;;;;5002244;28;20292;-73
2023/08/07 05:28:24;;;;;;;8.30;4.40;;;15.00;99.90;;;;;;5000607;28;20209;-74
2023/08/07 05:31:08;;;;;;;6.17;4.03;;;15.00;99.90;;;;;;4998681;28;20193;-73
2023/08/07 05:33:52;;;;;;;6.47;4.37;;;15.00;99.90;;;;;;5013624;28;20587;-74
2023/08/07 05:36:37;;;;;;;10.33;3.70;;;15.00;99.90;;;;;;5005677;28;20191;-72
2023/08/07 05:39:21;;;;;;;10.20;4.03;;;15.10;99.90;;;;;;5004167;28;20264;-73
2023/08/07 05:42:07;;;;;;;7.03;3.80;;;15.10;99.90;;;;;;5006590;28;20192;-72
2023/08/07 05:44:51;;;;;;;5.57;3.43;;;15.10;99.90;;;;;;5001957;28;20196;-73
2023/08/07 05:47:36;;;;;;;8.00;3.57;;;15.20;99.90;;;;;;5007535;28;20192;-74
2023/08/07 05:50:20;;;;;;;11.37;3.93;;;15.20;99.90;;;;;;5004068;28;20212;-73
2023/08/07 05:53:04;;;;;;;5.90;3.60;;;15.30;99.90;;;;;;5004644;28;20216;-74
2023/08/07 05:55:49;;;;;;;7.27;3.77;;;15.30;99.90;;;;;;5008969;28;20663;-73
2023/08/07 05:58:33;;;;;;;5.50;3.23;;;15.30;99.90;;;;;;5003366;28;20799;-73
2023/08/07 06:01:17;;;;;;;7.97;2.90;;;15.30;99.90;;;;;;5001799;28;20283;-73
2023/08/07 06:04:01;;;;;;;8.37;3.93;;;15.40;99.90;;;;;;5009961;28;20261;-73
2023/08/07 06:06:45;;;;;;;5.60;2.77;;;15.40;99.90;;;;;;5007610;28;20192;-73
2023/08/07 06:09:29;;;;;;;7.73;3.63;;;15.40;99.90;;;;;;5000395;28;20220;-72
2023/08/07 06:12:14;;;;;;;9.03;3.13;;;15.40;99.90;;;;;;5018116;28;20608;-72
2023/08/07 06:14:59;;;;;;;7.50;2.80;;;15.50;99.90;;;;;;5001902;28;20234;-74
2023/08/07 06:17:43;;;;;;;13.60;2.87;;;15.50;99.90;;;;;;5005049;28;20192;-73
2023/08/07 06:20:27;;;;;;;5.13;2.80;;;15.50;99.90;;;;;;5009592;28;20195;-73
2023/08/07 06:23:11;;;;;;;4.43;2.30;;;15.60;99.90;;;;;;5011835;28;20183;-74
2023/08/07 06:25:56;;;;;;;5.27;2.30;;;15.60;99.90;;;;;;4997964;28;20280;-73
2023/08/07 06:28:42;;;;;;;8.67;2.47;;;15.60;99.90;;;;;;5001912;28;20739;-73
2023/08/07 06:31:26;;;;;;;4.20;2.17;;;15.60;99.90;;;;;;4998638;28;20188;-72
2023/08/07 06:34:10;;;;;;;4.63;2.33;;;15.60;99.90;;;;;;4999846;28;20298;-73
2023/08/07 06:36:54;;;;;;;6.57;2.10;;;15.60;99.90;;;;;;5002933;28;20192;-73
2023/08/07 06:39:39;;;;;;;5.27;2.10;;;15.60;99.90;;;;;;5005513;28;20652;-74
2023/08/07 06:42:23;;;;;;;3.87;2.37;;;15.70;99.90;;;;;;5006411;28;20185;-72
2023/08/07 06:45:07;;;;;;;4.40;1.97;;;15.70;99.90;;;;;;5008453;28;20240;-73
2023/08/07 06:47:51;;;;;;;7.60;2.37;;;15.70;99.90;;;;;;5004815;28;20276;-73
2023/08/07 06:50:35;;;;;;;5.40;2.10;;;15.70;99.90;;;;;;5001666;28;20192;-73
2023/08/07 06:53:19;;;;;;;6.20;2.00;;;15.70;99.90;;;;;;5002087;28;20212;-73
2023/08/07 06:56:03;;;;;;;3.60;2.03;;;15.70;99.90;;;;;;5003183;28;20195;-73
2023/08/07 06:58:47;;;;;;;5.13;2.20;;;16.40;99.90;;;;;;4996642;28;20211;-73
2023/08/07 07:01:32;;;;;;;8.83;2.57;;;15.80;99.90;;;;;;4999960;28;20341;-73
2023/08/07 07:04:16;;;;;;;3.70;2.03;;;15.80;99.90;;;;;;5001413;28;20191;-73
2023/08/07 07:07:00;;;;;;;3.53;1.97;;;15.80;99.90;;;;;;5004769;28;20200;-72
2023/08/07 07:09:44;;;;;;;3.33;1.60;;;15.80;99.90;;;;;;5000520;28;20640;-73
2023/08/07 07:12:28;;;;;;;5.33;1.53;;;15.70;99.90;;;;;;4996581;28;20196;-72
2023/08/07 07:15:13;;;;;;;4.77;1.57;;;15.70;99.90;;;;;;4996327;28;20228;-73
2023/08/07 07:17:57;;;;;;;5.47;1.77;;;15.70;99.90;;;;;;5000592;28;20671;-73
2023/08/07 07:20:41;;;;;;;4.13;2.07;;;15.70;99.90;;;;;;5005424;28;20191;-72
2023/08/07 07:23:27;;;;;;;5.83;1.80;;;15.70;99.90;;;;;;4996404;28;20192;-73
2023/08/07 07:26:10;;;;;;;6.13;1.90;;;15.70;99.90;;;;;;5007169;28;20195;-73
2023/08/07 07:28:55;;;;;;;6.80;2.17;;;15.60;99.90;;;;;;5004396;28;20235;-73
2023/08/07 07:31:39;;;;;;;4.27;2.30;;;15.60;99.90;;;;;;5006998;28;20242;-73
2023/08/07 07:34:23;;;;;;;8.40;2.40;;;15.60;99.90;;;;;;5002119;28;20256;-73
2023/08/07 07:37:07;;;;;;;6.00;2.00;;;15.60;99.90;;;;;;5004451;28;20177;-73
2023/08/07 07:39:51;;;;;;;5.37;2.40;;;15.60;99.90;;;;;;4991604;28;20288;-72
2023/08/07 07:42:35;;;;;;;11.20;2.23;;;15.60;99.90;;;;;;5010493;28;20671;-72
2023/08/07 07:45:19;;;;;;;12.77;2.30;;;15.70;99.90;;;;;;4998156;28;20255;-73
2023/08/07 07:48:05;;;;;;;9.40;2.53;;;15.80;99.90;;;;;;5012523;28;20188;-73
2023/08/07 07:50:49;;;;;;;9.53;3.10;;;15.80;99.90;;;;;;4998693;28;20247;-73
2023/08/07 07:53:33;;;;;;;7.10;2.90;;;15.80;99.90;;;;;;5000154;28;20271;-73
2023/08/07 07:56:17;;;;;;;12.00;2.83;;;15.90;99.90;;;;;;5008881;28;20185;-73
2023/08/07 07:59:01;;;;;;;16.37;2.77;;;15.90;99.90;;;;;;5008048;28;20236;-73
2023/08/07 08:01:45;;;;;;;11.83;2.90;;;16.00;99.90;;;;;;5007388;28;20201;-73
2023/08/07 08:04:29;;;;;;;11.07;2.60;;;16.10;99.90;;;;;;5012860;28;20255;-73
2023/08/07 08:07:13;;;;;;;4.97;2.33;;;16.20;99.90;;;;;;4994107;28;20236;-73
2023/08/07 08:09:57;;;;;;;7.43;3.07;;;16.20;99.90;;;;;;5009049;28;20251;-72
2023/08/07 08:12:41;;;;;;;9.67;2.40;;;16.20;99.90;;;;;;5005812;28;20259;-72
2023/08/07 08:15:26;;;;;;;6.37;2.30;;;16.30;99.90;;;;;;5001074;28;20193;-73
2023/08/07 08:18:11;;;;;;;8.80;2.60;;;16.20;99.90;;;;;;5001270;28;20247;-73
2023/08/07 08:20:55;;;;;;;7.20;2.37;;;16.10;99.90;;;;;;5012264;28;20684;-72
2023/08/07 08:23:39;;;;;;;6.50;2.20;;;16.10;99.90;;;;;;5008058;28;20200;-72
2023/08/07 08:26:23;;;;;;;6.63;1.90;;;16.10;99.90;;;;;;5020493;28;20196;-73
2023/08/07 08:29:07;;;;;;;8.37;2.10;;;16.10;99.90;;;;;;5008039;28;20262;-73
2023/08/07 08:31:54;;;;;;;5.03;1.80;;;16.10;99.90;;;;;;5006807;28;20620;-72
2023/08/07 08:34:38;;;;;;;8.07;2.10;;;16.00;99.90;;;;;;5007220;28;20207;-73
2023/08/07 08:37:22;;;;;;;7.63;2.10;;;16.00;99.90;;;;;;5006214;28;20199;-73
2023/08/07 08:40:11;;;;;;;8.00;2.23;;;16.00;99.90;;;;;;4999661;28;20224;-73
2023/08/07 08:42:59;;;;;;;6.20;2.30;;;16.10;99.90;;;;;;5006228;28;20263;-72
2023/08/07 08:45:44;;;;;;;10.40;1.83;;;16.10;99.90;;;;;;5004955;28;20203;-72
2023/08/07 08:48:34;;;;;;;6.37;1.70;;;16.10;99.90;;;;;;5003028;28;20211;-72
2023/08/07 08:51:21;;;;;;;6.70;1.70;;;16.10;99.90;;;;;;5017889;28;20188;-72
2023/08/07 08:54:06;;;;;;;6.37;1.93;;;16.10;99.90;;;;;;5008354;28;20202;-72
2023/08/07 08:56:50;;;;;;;10.20;2.30;;;16.00;99.90;;;;;;5010565;28;20203;-73
2023/08/07 08:59:34;;;;;;;8.73;1.87;;;15.90;99.90;;;;;;5005382;28;20208;-72
2023/08/07 09:02:18;;;;;;;5.53;1.73;;;15.90;99.90;;;;;;5007803;28;20248;-73
2023/08/07 09:05:03;;;;;;;8.57;2.60;;;16.50;99.90;;;;;;5000890;28;20227;-72
2023/08/07 09:07:48;;;;;;;6.40;2.13;;;15.90;99.90;;;;;;5001150;28;20199;-73
2023/08/07 09:10:33;;;;;;;10.63;2.27;;;15.90;99.90;;;;;;5006362;28;20731;-73
2023/08/07 09:13:20;;;;;;;10.13;2.30;;;16.00;99.90;;;;;;4995395;28;20216;-73
2023/08/07 09:16:07;;;;;;;11.67;2.37;;;16.10;99.90;;;;;;5009868;28;20250;-74
2023/08/07 09:18:52;;;;;;;8.43;2.40;;;16.20;99.90;;;;;;4994696;28;20220;-74
2023/08/07 09:21:36;;;;;;;7.97;2.07;;;16.20;99.90;;;;;;4999173;28;20208;-73
2023/08/07 09:24:22;;;;;;;8.33;2.50;;;16.30;99.90;;;;;;5018288;28;20319;-73
2023/08/07 09:27:09;;;;;;;8.73;2.20;;;16.40;99.90;;;;;;5000971;28;20668;-73
2023/08/07 09:29:55;;;;;;;7.93;2.30;;;16.50;99.90;;;;;;5006025;28;20221;-74
2023/08/07 09:32:39;;;;;;;8.13;2.07;;;16.50;99.90;;;;;;5009788;28;20192;-73
2023/08/07 09:35:24;;;;;;;9.20;2.10;;;16.60;99.90;;;;;;5006961;28;20259;-74
2023/08/07 09:38:08;;;;;;;12.83;2.93;;;16.60;99.90;;;;;;5002245;28;20187;-74
2023/08/07 09:40:52;;;;;;;9.60;2.20;;;16.70;99.90;;;;;;5003701;28;20180;-73
2023/08/07 09:43:36;;;;;;;6.70;2.03;;;16.80;99.90;;;;;;5006040;28;20231;-73
2023/08/07 09:46:21;;;;;;;9.40;1.87;;;16.80;99.90;;;;;;5002198;28;20215;-73
2023/08/07 09:49:05;;;;;;;8.37;2.00;;;16.90;99.90;;;;;;5011454;28;20296;-73
2023/08/07 09:51:50;;;;;;;7.00;2.07;;;16.90;99.90;;;;;;5003084;28;20251;-73
2023/08/07 09:54:35;;;;;;;8.67;2.30;;;17.00;99.90;;;;;;5005865;28;20216;-73
2023/08/07 09:57:20;;;;;;;10.27;2.07;;;17.00;99.90;;;;;;4996553;28;20560;-74
2023/08/07 10:00:11;;;;;;;6.50;1.90;;;17.10;99.90;;;;;;5007638;28;20631;-74
2023/08/07 10:02:55;;;;;;;6.33;1.77;;;17.10;99.90;;;;;;5005603;28;20231;-74
2023/08/07 10:05:41;;;;;;;4.23;2.17;;;17.10;99.90;;;;;;5014427;28;20192;-74
2023/08/07 10:08:25;;;;;;;4.27;1.60;;;17.10;99.90;;;;;;5006169;28;20235;-74
2023/08/07 10:11:10;;;;;;;5.97;2.27;;;17.10;99.90;;;;;;4998770;28;20200;-73
2023/08/07 10:13:57;;;;;;;7.50;1.97;;;17.10;99.90;;;;;;5007864;28;20271;-72
2023/08/07 10:16:42;;;;;;;6.07;2.10;;;17.10;99.90;;;;;;5000297;28;20191;-72
2023/08/07 10:19:25;;;;;;;7.40;2.00;;;17.10;99.90;;;;;;5006767;28;20289;-73
2023/08/07 10:22:10;;;;;;;5.28;1.90;;;17.10;99.90;;;;;;4999418;28;20180;-73
2023/08/07 10:24:57;;;;;;;6.87;2.20;;;17.20;99.90;;;;;;5008897;28;20331;-73
2023/08/07 10:27:44;;;;;;;8.50;2.08;;;17.20;99.90;;;;;;5002449;28;20687;-73
2023/08/07 10:30:29;;;;;;;4.65;1.92;;;17.20;99.90;;;;;;5008138;28;20191;-73
2023/08/07 10:33:14;;;;;;;4.82;2.40;;;17.30;99.90;;;;;;5006665;28;20196;-72
2023/08/07 10:36:02;;;;;;;5.97;1.73;;;17.30;99.90;;;;;;4996652;28;20204;-73
2023/08/07 10:38:51;;;;;;;6.38;2.28;;;17.30;99.90;;;;;;4999504;28;20212;-71
2023/08/07 10:41:40;;;;;;;11.43;2.10;;;17.30;99.90;;;;;;5009337;28;20695;-73
2023/08/07 10:44:26;;;;;;;13.00;2.30;;;17.30;99.90;;;;;;5000074;28;20267;-72
2023/08/07 10:47:10;;;;;;;8.80;2.27;;;17.30;99.90;;;;;;5004509;28;20192;-72
2023/08/07 10:49:55;;;;;;;9.07;2.20;;;17.10;99.90;;;;;;5007100;28;20215;-73
2023/08/07 10:52:39;;;;;;;7.87;2.53;;;16.90;99.90;;;;;;5002055;28;20192;-73
2023/08/07 10:55:24;;;;;;;10.73;3.33;;;16.70;99.90;;;;;;5002047;28;20202;-72
2023/08/07 10:58:23;;;;;;;10.15;2.78;;;16.50;99.90;;;;;;5005938;28;20243;-72
2023/08/07 11:01:19;;;;;;;8.50;2.77;;;16.30;99.90;;;;;;4998012;28;20734;-72
2023/08/07 11:04:10;;;;;;;7.73;2.47;;;16.10;99.90;;;;;;4996168;28;20676;-73
2023/08/07 11:06:54;;;;;;;10.80;2.07;;;16.00;99.90;;;;;;5015801;28;20184;-73
2023/08/07 11:09:39;;;;;;;9.50;2.53;;;15.80;99.90;;;;;;5016130;28;20244;-72
2023/08/07 11:12:29;;;;;;;6.30;2.27;;;;;;;;;;5002040;28;20204;-73
2023/08/07 11:15:14;;;;;;;5.73;2.03;;;15.40;99.90;;;;;;5007432;28;20204;-72
2023/08/07 11:17:59;;;;;;;10.87;2.63;;;15.60;99.90;;;;;;5010705;28;20237;-72
2023/08/07 11:20:44;;;;;;;7.40;2.73;;;16.50;99.90;;;;;;5022916;28;20182;-73
2023/08/07 11:23:31;;;;;;;10.90;2.13;;;15.40;99.90;;;;;;5012617;28;20230;-72
2023/08/07 11:26:21;;;;;;;4.60;1.87;;;15.50;99.90;;;;;;5005811;28;20188;-73
2023/08/07 11:29:06;;;;;;;8.33;2.53;;;15.60;99.90;;;;;;5002219;28;20259;-73
2023/08/07 11:31:54;;;;;;;11.13;2.63;;;16.10;99.90;;;;;;5018832;28;20207;-74
2023/08/07 11:34:38;;;;;;;5.70;2.07;;;15.80;99.90;;;;;;5016204;28;20251;-75
2023/08/07 11:37:22;;;;;;;6.73;2.30;;;15.20;99.90;;;;;;5003695;28;20243;-73
2023/08/07 11:40:08;;;;;;;8.53;2.67;;;18.10;99.90;;;;;;5004191;28;20251;-73
2023/08/07 11:42:52;;;;;;;11.67;2.30;;;15.90;99.90;;;;;;5009527;28;20235;-73
2023/08/07 11:45:36;;;;;;;7.57;2.00;;;16.50;99.90;;;;;;5012913;28;20273;-74
2023/08/07 11:48:21;;;;;;;8.67;2.03;;;;;;;;;;5012990;28;20319;-74
2023/08/07 11:51:07;;;;;;;8.07;2.13;;;15.50;99.90;;;;;;5026111;28;20235;-75
2023/08/07 11:53:56;;;;;;;12.13;2.67;;;16.50;99.90;;;;;;5005202;28;20212;-74
2023/08/07 11:56:42;;;;;;;5.53;1.93;;;16.60;99.90;;;;;;5024720;28;20196;-74
2023/08/07 11:59:27;;;;;;;7.70;2.20;;;16.60;99.90;;;;;;5010165;28;20211;-73
2023/08/07 12:02:12;;;;;;;7.90;2.23;;;17.30;99.90;;;;;;5011563;28;20208;-73
2023/08/07 12:05:00;;;;;;;5.53;1.70;;;15.50;99.90;;;;;;5016004;28;20207;-74
2023/08/07 12:07:44;;;;;;;6.13;2.07;;;16.60;99.90;;;;;;5006923;28;20191;-74
2023/08/07 12:10:28;;;;;;;8.77;1.97;;;16.60;99.90;;;;;;5010668;28;20211;-74
2023/08/07 12:13:12;;;;;;;10.47;2.00;;;16.80;99.90;;;;;;5011418;28;20191;-73
2023/08/07 12:15:57;;;;;;;8.33;2.17;;;16.80;99.90;;;;;;5007251;28;20675;-74
2023/08/07 12:18:46;;;;;;;7.20;2.33;;;17.70;99.90;;;;;;5006230;28;20259;-73
2023/08/07 12:21:33;;;;;;;6.90;2.00;;;17.00;99.90;;;;;;5006082;28;20189;-74
2023/08/07 12:24:26;;;;;;;5.53;1.90;;;17.00;99.90;;;;;;5019788;28;20196;-73
2023/08/07 12:27:11;;;;;;;10.83;1.97;;;16.90;99.90;;;;;;5006418;28;20239;-74
2023/08/07 12:29:55;;;;;;;6.87;1.90;;;17.30;99.90;;;;;;5006323;28;20335;-73
2023/08/07 12:32:40;;;;;;;7.10;2.40;;;17.00;99.90;;;;;;5007126;28;20240;-73
2023/08/07 12:35:24;;;;;;;5.17;1.57;;;17.00;99.90;;;;;;5004041;28;20259;-74
2023/08/07 12:38:09;;;;;;;4.67;1.67;;;17.10;99.90;;;;;;5010246;28;20260;-74
2023/08/07 12:40:53;;;;;;;4.80;1.97;;;17.10;99.90;;;;;;5000432;28;20199;-74
2023/08/07 12:43:38;;;;;;;8.00;2.05;;;17.10;99.90;;;;;;5007991;28;20546;-74
2023/08/07 12:46:22;;;;;;;7.63;2.20;;;17.20;99.90;;;;;;5000587;28;20179;-74
2023/08/07 12:49:09;;;;;;;6.27;2.20;;;17.20;99.90;;;;;;5006556;28;20212;-74
2023/08/07 12:51:55;;;;;;;7.20;1.97;;;17.20;99.90;;;;;;5005818;28;20200;-74
2023/08/07 12:54:39;;;;;;;10.57;2.40;;;17.10;99.90;;;;;;5001206;28;20224;-71
2023/08/07 12:57:24;;;;;;;5.75;1.92;;;17.10;99.90;;;;;;5023899;28;20285;-72
2023/08/07 13:00:12;;;;;;;6.20;1.83;;;17.10;99.90;;;;;;5001001;28;20212;-73
2023/08/07 13:02:56;;;;;;;5.35;2.00;;;17.20;99.90;;;;;;5002752;28;20185;-73
2023/08/07 13:05:40;;;;;;;10.70;2.00;;;17.30;99.90;;;;;;5011493;28;20196;-73
2023/08/07 13:08:34;;;;;;;9.60;2.30;;;17.40;99.90;;;;;;5014612;28;20223;-72
2023/08/07 13:11:19;;;;;;;3.78;1.70;;;17.50;99.90;;;;;;4994521;28;20244;-73
2023/08/07 13:14:06;;;;;;;3.80;1.52;;;17.50;99.90;;;;;;5002182;28;20758;-73
2023/08/07 13:16:50;;;;;;;6.17;1.83;;;17.60;99.90;;;;;;5007834;28;20228;-73
2023/08/07 13:19:35;;;;;;;15.82;3.40;;;17.60;99.90;;;;;;5004901;28;20207;-73
2023/08/07 13:22:19;;;;;;;9.15;2.00;;;17.60;99.90;;;;;;4999802;28;20244;-75
2023/08/07 13:25:04;;;;;;;6.65;1.70;;;17.10;99.90;;;;;;5007924;28;20177;-72
2023/08/07 13:27:48;;;;;;;8.85;1.77;;;17.60;99.90;;;;;;5019823;28;20215;-72
2023/08/07 13:30:35;;;;;;;8.35;1.70;;;17.60;99.90;;;;;;5003055;28;20227;-72
2023/08/07 13:33:20;;;;;;;8.88;1.65;;;17.60;99.90;;;;;;4996627;28;20196;-72
2023/08/07 13:36:05;;;;;;;7.70;1.58;;;17.60;99.90;;;;;;5004096;28;20208;-73
2023/08/07 13:38:49;;;;;;;7.55;1.58;;;17.60;99.90;;;;;;5008692;28;20271;-72
2023/08/07 13:41:34;;;;;;;6.40;1.75;;;;;;;;;;5007647;28;20188;-73
2023/08/07 13:44:20;;;;;;;6.38;1.30;;;;;;;;;;5006057;28;20195;-74
2023/08/07 13:47:05;;;;;;;4.32;1.15;;;;;;;;;;5002096;28;20196;-73
2023/08/07 13:49:53;;;;;;;1.67;0.88;;;;;;;;;;5013293;28;20673;-72
2023/08/07 13:52:39;;;;;;;3.15;1.10;;;;;;;;;;5020426;28;20287;-72
2023/08/07 13:55:23;;;;;;;5.88;1.30;;;17.50;99.90;;;;;;5005004;28;20215;-73
2023/08/07 13:58:09;;;;;;;4.13;1.08;;;17.50;99.90;;;;;;5000855;28;20188;-72
2023/08/07 14:00:53;;;;;;;3.90;1.30;;;17.50;99.90;;;;;;5002410;28;20671;-73
2023/08/07 14:03:38;;;;;;;3.95;1.17;;;17.50;99.90;;;;;;4999759;28;20309;-72
2023/08/07 14:06:22;;;;;;;4.22;1.23;;;17.40;99.90;;;;;;4999581;28;20188;-72
2023/08/07 14:09:06;;;;;;;7.88;1.52;;;17.30;99.90;;;;;;5004822;28;20650;-73
2023/08/07 14:11:50;;;;;;;2.60;1.17;;;17.10;99.90;;;;;;5008919;28;20287;-72
2023/08/07 14:14:35;;;;;;;2.40;0.95;;;;;;;;;;5004064;28;20294;-72
2023/08/07 14:17:20;;;;;;;4.07;1.10;;;;;;;;;;5013000;28;20196;-73
2023/08/07 14:20:05;;;;;;;3.67;1.00;;;16.70;99.90;;;;;;4994045;28;20211;-72
2023/08/07 14:22:50;;;;;;;2.63;0.93;;;16.10;99.90;;;;;;5002647;28;20188;-73